sensor_id;sensor_type;location;lat;lon;timestamp;P1;durP1;ratioP1;P2;durP2;ratioP2
48578;SDS011;34357;51.948;6.132;2023-07-20T00:01:21;7.47;;;3.63;;
48578;SDS011;34357;51.948;6.132;2023-07-20T00:03:47;10.00;;;4.18;;
48578;SDS011;34357;51.948;6.132;2023-07-20T00:06:29;8.95;;;4.05;;
48578;SDS011;34357;51.948;6.132;2023-07-20T00:08:55;10.35;;;4.45;;
48578;SDS011;34357;51.948;6.132;2023-07-20T00:11:21;7.18;;;4.35;;
48578;SDS011;34357;51.948;6.132;2023-07-20T00:13:50;9.02;;;4.50;;
48578;SDS011;34357;51.948;6.132;2023-07-20T00:16:16;8.15;;;3.90;;
48578;SDS011;34357;51.948;6.132;2023-07-20T00:18:42;11.07;;;4.72;;
48578;SDS011;34357;51.948;6.132;2023-07-20T00:21:08;8.00;;;5.63;;
48578;SDS011;34357;51.948;6.132;2023-07-20T00:23:33;10.30;;;6.13;;
48578;SDS011;34357;51.948;6.132;2023-07-20T00:25:59;7.65;;;5.90;;
48578;SDS011;34357;51.948;6.132;2023-07-20T00:28:25;14.43;;;6.50;;
48578;SDS011;34357;51.948;6.132;2023-07-20T00:30:50;12.27;;;6.85;;
48578;SDS011;34357;51.948;6.132;2023-07-20T00:33:17;11.15;;;7.03;;
48578;SDS011;34357;51.948;6.132;2023-07-20T00:35:43;9.15;;;6.93;;
48578;SDS011;34357;51.948;6.132;2023-07-20T00:38:09;16.58;;;7.70;;
48578;SDS011;34357;51.948;6.132;2023-07-20T00:40:39;11.30;;;7.85;;
48578;SDS011;34357;51.948;6.132;2023-07-20T00:43:06;9.57;;;6.13;;
48578;SDS011;34357;51.948;6.132;2023-07-20T00:45:32;11.25;;;6.97;;
48578;SDS011;34357;51.948;6.132;2023-07-20T00:47:58;9.00;;;6.57;;
48578;SDS011;34357;51.948;6.132;2023-07-20T00:50:26;12.32;;;7.00;;
48578;SDS011;34357;51.948;6.132;2023-07-20T00:52:53;12.52;;;6.35;;
48578;SDS011;34357;51.948;6.132;2023-07-20T00:55:19;13.43;;;6.07;;
48578;SDS011;34357;51.948;6.132;2023-07-20T00:57:45;9.73;;;6.00;;
48578;SDS011;34357;51.948;6.132;2023-07-20T01:00:11;12.90;;;6.20;;
48578;SDS011;34357;51.948;6.132;2023-07-20T01:02:38;8.43;;;5.30;;
48578;SDS011;34357;51.948;6.132;2023-07-20T01:05:03;9.93;;;5.82;;
48578;SDS011;34357;51.948;6.132;2023-07-20T01:07:39;8.80;;;5.30;;
48578;SDS011;34357;51.948;6.132;2023-07-20T01:12:47;7.70;;;5.00;;
48578;SDS011;34357;51.948;6.132;2023-07-20T01:15:16;10.15;;;5.50;;
48578;SDS011;34357;51.948;6.132;2023-07-20T01:17:42;6.72;;;5.30;;
48578;SDS011;34357;51.948;6.132;2023-07-20T01:20:09;8.50;;;5.07;;
48578;SDS011;34357;51.948;6.132;2023-07-20T01:31:36;8.07;;;4.57;;
48578;SDS011;34357;51.948;6.132;2023-07-20T01:34:03;5.85;;;4.75;;
48578;SDS011;34357;51.948;6.132;2023-07-20T01:36:36;9.05;;;4.63;;
48578;SDS011;34357;51.948;6.132;2023-07-20T01:39:03;7.63;;;4.97;;
48578;SDS011;34357;51.948;6.132;2023-07-20T01:41:30;11.73;;;5.38;;
48578;SDS011;34357;51.948;6.132;2023-07-20T01:43:59;10.32;;;4.63;;
48578;SDS011;34357;51.948;6.132;2023-07-20T01:46:25;7.05;;;5.10;;
48578;SDS011;34357;51.948;6.132;2023-07-20T01:48:51;8.45;;;4.82;;
48578;SDS011;34357;51.948;6.132;2023-07-20T01:51:17;6.07;;;4.60;;
48578;SDS011;34357;51.948;6.132;2023-07-20T01:53:43;7.88;;;4.50;;
48578;SDS011;34357;51.948;6.132;2023-07-20T01:56:09;4.82;;;3.95;;
48578;SDS011;34357;51.948;6.132;2023-07-20T01:58:37;4.07;;;3.30;;
48578;SDS011;34357;51.948;6.132;2023-07-20T02:01:03;5.13;;;3.10;;
48578;SDS011;34357;51.948;6.132;2023-07-20T02:03:29;3.28;;;2.88;;
48578;SDS011;34357;51.948;6.132;2023-07-20T02:05:55;3.10;;;2.78;;
48578;SDS011;34357;51.948;6.132;2023-07-20T02:08:22;3.78;;;3.38;;
48578;SDS011;34357;51.948;6.132;2023-07-20T02:10:48;3.88;;;3.35;;
48578;SDS011;34357;51.948;6.132;2023-07-20T02:13:15;4.47;;;3.15;;
48578;SDS011;34357;51.948;6.132;2023-07-20T02:15:41;4.47;;;3.15;;
48578;SDS011;34357;51.948;6.132;2023-07-20T02:18:07;5.03;;;3.15;;
48578;SDS011;34357;51.948;6.132;2023-07-20T02:20:34;3.80;;;3.50;;
48578;SDS011;34357;51.948;6.132;2023-07-20T02:23:00;4.82;;;3.35;;
48578;SDS011;34357;51.948;6.132;2023-07-20T02:25:26;3.85;;;3.38;;
48578;SDS011;34357;51.948;6.132;2023-07-20T02:27:52;5.32;;;3.75;;
48578;SDS011;34357;51.948;6.132;2023-07-20T02:30:17;4.75;;;3.60;;
48578;SDS011;34357;51.948;6.132;2023-07-20T02:32:43;4.10;;;3.10;;
48578;SDS011;34357;51.948;6.132;2023-07-20T02:35:11;3.38;;;3.00;;
48578;SDS011;34357;51.948;6.132;2023-07-20T02:37:38;3.75;;;3.33;;
48578;SDS011;34357;51.948;6.132;2023-07-20T02:40:04;3.03;;;2.72;;
48578;SDS011;34357;51.948;6.132;2023-07-20T02:42:30;5.10;;;2.80;;
48578;SDS011;34357;51.948;6.132;2023-07-20T02:44:56;3.05;;;2.83;;
48578;SDS011;34357;51.948;6.132;2023-07-20T02:47:21;4.68;;;2.90;;
48578;SDS011;34357;51.948;6.132;2023-07-20T02:49:47;4.80;;;3.03;;
48578;SDS011;34357;51.948;6.132;2023-07-20T02:52:13;3.50;;;3.08;;
48578;SDS011;34357;51.948;6.132;2023-07-20T02:54:39;4.22;;;3.28;;
48578;SDS011;34357;51.948;6.132;2023-07-20T02:57:05;3.50;;;3.13;;
48578;SDS011;34357;51.948;6.132;2023-07-20T02:59:31;4.53;;;2.90;;
48578;SDS011;34357;51.948;6.132;2023-07-20T03:01:56;4.90;;;3.20;;
48578;SDS011;34357;51.948;6.132;2023-07-20T03:04:23;3.58;;;2.95;;
48578;SDS011;34357;51.948;6.132;2023-07-20T03:06:50;3.92;;;3.25;;
48578;SDS011;34357;51.948;6.132;2023-07-20T03:09:16;4.40;;;3.10;;
48578;SDS011;34357;51.948;6.132;2023-07-20T03:11:42;3.60;;;3.05;;
48578;SDS011;34357;51.948;6.132;2023-07-20T03:14:11;4.28;;;3.33;;
48578;SDS011;34357;51.948;6.132;2023-07-20T03:16:37;5.55;;;4.15;;
48578;SDS011;34357;51.948;6.132;2023-07-20T03:19:03;4.22;;;3.50;;
48578;SDS011;34357;51.948;6.132;2023-07-20T03:21:29;4.80;;;3.40;;
48578;SDS011;34357;51.948;6.132;2023-07-20T03:23:55;4.75;;;3.55;;
48578;SDS011;34357;51.948;6.132;2023-07-20T03:26:20;4.30;;;3.90;;
48578;SDS011;34357;51.948;6.132;2023-07-20T03:28:46;3.85;;;3.50;;
48578;SDS011;34357;51.948;6.132;2023-07-20T03:31:12;5.28;;;3.80;;
48578;SDS011;34357;51.948;6.132;2023-07-20T03:33:39;3.63;;;3.33;;
48578;SDS011;34357;51.948;6.132;2023-07-20T03:36:05;6.20;;;4.00;;
48578;SDS011;34357;51.948;6.132;2023-07-20T03:38:31;7.72;;;4.03;;
48578;SDS011;34357;51.948;6.132;2023-07-20T03:40:58;4.78;;;3.50;;
48578;SDS011;34357;51.948;6.132;2023-07-20T03:43:26;4.47;;;3.55;;
48578;SDS011;34357;51.948;6.132;2023-07-20T03:45:52;3.88;;;3.40;;
48578;SDS011;34357;51.948;6.132;2023-07-20T03:48:20;3.78;;;3.28;;
48578;SDS011;34357;51.948;6.132;2023-07-20T03:50:47;4.13;;;3.10;;
48578;SDS011;34357;51.948;6.132;2023-07-20T03:53:14;3.72;;;3.42;;
48578;SDS011;34357;51.948;6.132;2023-07-20T03:55:50;3.30;;;3.00;;
48578;SDS011;34357;51.948;6.132;2023-07-20T03:58:17;5.15;;;2.88;;
48578;SDS011;34357;51.948;6.132;2023-07-20T04:00:48;3.60;;;2.70;;
48578;SDS011;34357;51.948;6.132;2023-07-20T04:03:18;5.32;;;2.70;;
48578;SDS011;34357;51.948;6.132;2023-07-20T04:05:45;3.40;;;2.92;;
48578;SDS011;34357;51.948;6.132;2023-07-20T04:08:11;3.53;;;3.13;;
48578;SDS011;34357;51.948;6.132;2023-07-20T04:10:37;2.67;;;2.47;;
48578;SDS011;34357;51.948;6.132;2023-07-20T04:13:03;5.68;;;2.97;;
48578;SDS011;34357;51.948;6.132;2023-07-20T04:15:30;2.92;;;2.42;;
48578;SDS011;34357;51.948;6.132;2023-07-20T04:17:56;3.03;;;2.65;;
48578;SDS011;34357;51.948;6.132;2023-07-20T04:20:22;4.15;;;3.03;;
48578;SDS011;34357;51.948;6.132;2023-07-20T04:22:48;4.40;;;2.85;;
48578;SDS011;34357;51.948;6.132;2023-07-20T04:25:15;3.65;;;2.67;;
48578;SDS011;34357;51.948;6.132;2023-07-20T04:27:41;6.18;;;2.53;;
48578;SDS011;34357;51.948;6.132;2023-07-20T04:30:08;2.78;;;2.58;;
48578;SDS011;34357;51.948;6.132;2023-07-20T04:32:37;4.88;;;3.00;;
48578;SDS011;34357;51.948;6.132;2023-07-20T04:35:06;3.80;;;3.00;;
48578;SDS011;34357;51.948;6.132;2023-07-20T04:37:38;4.25;;;3.20;;
48578;SDS011;34357;51.948;6.132;2023-07-20T04:40:12;4.43;;;2.88;;
48578;SDS011;34357;51.948;6.132;2023-07-20T04:42:40;3.03;;;2.75;;
48578;SDS011;34357;51.948;6.132;2023-07-20T04:45:06;3.25;;;2.90;;
48578;SDS011;34357;51.948;6.132;2023-07-20T04:47:32;2.97;;;2.58;;
48578;SDS011;34357;51.948;6.132;2023-07-20T04:49:58;4.03;;;3.10;;
48578;SDS011;34357;51.948;6.132;2023-07-20T04:52:23;3.70;;;2.83;;
48578;SDS011;34357;51.948;6.132;2023-07-20T04:54:50;5.55;;;2.63;;
48578;SDS011;34357;51.948;6.132;2023-07-20T04:57:15;3.08;;;2.78;;
48578;SDS011;34357;51.948;6.132;2023-07-20T04:59:45;4.80;;;2.70;;
48578;SDS011;34357;51.948;6.132;2023-07-20T05:02:11;5.40;;;2.78;;
48578;SDS011;34357;51.948;6.132;2023-07-20T05:04:37;3.90;;;2.90;;
48578;SDS011;34357;51.948;6.132;2023-07-20T05:07:02;3.28;;;2.63;;
48578;SDS011;34357;51.948;6.132;2023-07-20T05:09:28;3.03;;;2.63;;
48578;SDS011;34357;51.948;6.132;2023-07-20T05:11:54;3.15;;;2.67;;
48578;SDS011;34357;51.948;6.132;2023-07-20T05:14:21;3.08;;;2.60;;
48578;SDS011;34357;51.948;6.132;2023-07-20T05:16:49;3.83;;;2.75;;
48578;SDS011;34357;51.948;6.132;2023-07-20T05:19:14;4.82;;;2.88;;
48578;SDS011;34357;51.948;6.132;2023-07-20T05:21:40;2.90;;;2.70;;
48578;SDS011;34357;51.948;6.132;2023-07-20T05:24:06;3.10;;;2.67;;
48578;SDS011;34357;51.948;6.132;2023-07-20T05:26:33;4.65;;;2.90;;
48578;SDS011;34357;51.948;6.132;2023-07-20T05:28:59;5.13;;;3.00;;
48578;SDS011;34357;51.948;6.132;2023-07-20T05:31:24;3.03;;;2.72;;
48578;SDS011;34357;51.948;6.132;2023-07-20T05:33:51;4.07;;;2.15;;
48578;SDS011;34357;51.948;6.132;2023-07-20T05:36:17;2.85;;;2.47;;
48578;SDS011;34357;51.948;6.132;2023-07-20T05:38:42;4.20;;;2.40;;
48578;SDS011;34357;51.948;6.132;2023-07-20T05:41:08;4.30;;;2.35;;
48578;SDS011;34357;51.948;6.132;2023-07-20T05:43:35;2.60;;;2.40;;
48578;SDS011;34357;51.948;6.132;2023-07-20T05:46:01;2.60;;;2.40;;
48578;SDS011;34357;51.948;6.132;2023-07-20T05:48:26;2.70;;;2.40;;
48578;SDS011;34357;51.948;6.132;2023-07-20T05:50:52;2.97;;;2.58;;
48578;SDS011;34357;51.948;6.132;2023-07-20T05:53:18;3.67;;;2.13;;
48578;SDS011;34357;51.948;6.132;2023-07-20T05:55:44;2.90;;;2.30;;
48578;SDS011;34357;51.948;6.132;2023-07-20T05:58:16;2.80;;;1.80;;
48578;SDS011;34357;51.948;6.132;2023-07-20T06:00:42;3.45;;;1.48;;
48578;SDS011;34357;51.948;6.132;2023-07-20T06:03:07;2.25;;;1.85;;
48578;SDS011;34357;51.948;6.132;2023-07-20T06:05:33;2.00;;;1.80;;
48578;SDS011;34357;51.948;6.132;2023-07-20T06:07:59;3.85;;;1.88;;
48578;SDS011;34357;51.948;6.132;2023-07-20T06:10:25;4.32;;;2.15;;
48578;SDS011;34357;51.948;6.132;2023-07-20T06:12:51;2.22;;;1.20;;
48578;SDS011;34357;51.948;6.132;2023-07-20T06:15:24;1.88;;;1.50;;
48578;SDS011;34357;51.948;6.132;2023-07-20T06:17:54;2.78;;;1.42;;
48578;SDS011;34357;51.948;6.132;2023-07-20T06:20:21;1.48;;;1.33;;
48578;SDS011;34357;51.948;6.132;2023-07-20T06:22:47;3.28;;;1.30;;
48578;SDS011;34357;51.948;6.132;2023-07-20T06:25:13;3.00;;;1.20;;
48578;SDS011;34357;51.948;6.132;2023-07-20T06:27:39;1.98;;;1.00;;
48578;SDS011;34357;51.948;6.132;2023-07-20T06:30:05;2.25;;;1.02;;
48578;SDS011;34357;51.948;6.132;2023-07-20T06:32:31;2.67;;;1.10;;
48578;SDS011;34357;51.948;6.132;2023-07-20T06:34:57;2.25;;;1.02;;
48578;SDS011;34357;51.948;6.132;2023-07-20T06:37:22;2.58;;;1.10;;
48578;SDS011;34357;51.948;6.132;2023-07-20T06:39:49;1.42;;;1.02;;
48578;SDS011;34357;51.948;6.132;2023-07-20T06:42:14;1.10;;;1.00;;
48578;SDS011;34357;51.948;6.132;2023-07-20T06:44:40;1.58;;;0.80;;
48578;SDS011;34357;51.948;6.132;2023-07-20T06:47:06;2.00;;;0.85;;
48578;SDS011;34357;51.948;6.132;2023-07-20T06:49:32;3.08;;;1.10;;
48578;SDS011;34357;51.948;6.132;2023-07-20T06:51:58;1.58;;;0.90;;
48578;SDS011;34357;51.948;6.132;2023-07-20T06:54:24;3.65;;;1.00;;
48578;SDS011;34357;51.948;6.132;2023-07-20T06:56:50;0.88;;;0.77;;
48578;SDS011;34357;51.948;6.132;2023-07-20T06:59:16;4.53;;;0.90;;
48578;SDS011;34357;51.948;6.132;2023-07-20T07:01:42;2.90;;;0.88;;
48578;SDS011;34357;51.948;6.132;2023-07-20T07:04:07;1.35;;;0.63;;
48578;SDS011;34357;51.948;6.132;2023-07-20T07:06:33;1.70;;;0.60;;
48578;SDS011;34357;51.948;6.132;2023-07-20T07:08:59;2.35;;;0.80;;
48578;SDS011;34357;51.948;6.132;2023-07-20T07:11:25;1.08;;;0.70;;
48578;SDS011;34357;51.948;6.132;2023-07-20T07:13:51;2.83;;;0.60;;
48578;SDS011;34357;51.948;6.132;2023-07-20T07:16:17;1.42;;;0.50;;
48578;SDS011;34357;51.948;6.132;2023-07-20T07:18:45;1.52;;;0.60;;
48578;SDS011;34357;51.948;6.132;2023-07-20T07:21:11;2.05;;;0.60;;
48578;SDS011;34357;51.948;6.132;2023-07-20T07:23:37;1.25;;;0.57;;
48578;SDS011;34357;51.948;6.132;2023-07-20T07:26:04;2.40;;;0.60;;
48578;SDS011;34357;51.948;6.132;2023-07-20T07:28:30;1.17;;;0.47;;
48578;SDS011;34357;51.948;6.132;2023-07-20T07:30:57;3.00;;;0.60;;
48578;SDS011;34357;51.948;6.132;2023-07-20T07:33:22;1.52;;;0.40;;
48578;SDS011;34357;51.948;6.132;2023-07-20T07:35:49;1.90;;;0.40;;
48578;SDS011;34357;51.948;6.132;2023-07-20T07:38:16;0.70;;;0.43;;
48578;SDS011;34357;51.948;6.132;2023-07-20T07:40:42;1.85;;;0.60;;
48578;SDS011;34357;51.948;6.132;2023-07-20T07:43:07;3.30;;;0.60;;
48578;SDS011;34357;51.948;6.132;2023-07-20T07:45:34;1.42;;;0.60;;
48578;SDS011;34357;51.948;6.132;2023-07-20T07:48:02;1.27;;;0.70;;
48578;SDS011;34357;51.948;6.132;2023-07-20T07:50:29;1.73;;;0.40;;
48578;SDS011;34357;51.948;6.132;2023-07-20T07:52:55;1.67;;;0.60;;
48578;SDS011;34357;51.948;6.132;2023-07-20T07:55:20;2.17;;;0.55;;
48578;SDS011;34357;51.948;6.132;2023-07-20T07:57:46;1.33;;;0.50;;
48578;SDS011;34357;51.948;6.132;2023-07-20T08:00:12;0.75;;;0.40;;
48578;SDS011;34357;51.948;6.132;2023-07-20T08:02:42;1.35;;;0.68;;
48578;SDS011;34357;51.948;6.132;2023-07-20T08:05:09;1.67;;;0.55;;
48578;SDS011;34357;51.948;6.132;2023-07-20T08:07:35;1.15;;;0.40;;
48578;SDS011;34357;51.948;6.132;2023-07-20T08:10:04;2.55;;;0.52;;
48578;SDS011;34357;51.948;6.132;2023-07-20T08:12:31;1.02;;;0.50;;
48578;SDS011;34357;51.948;6.132;2023-07-20T08:14:57;2.63;;;0.73;;
48578;SDS011;34357;51.948;6.132;2023-07-20T08:17:22;1.23;;;0.55;;
48578;SDS011;34357;51.948;6.132;2023-07-20T08:19:48;1.63;;;0.50;;
48578;SDS011;34357;51.948;6.132;2023-07-20T08:22:14;2.47;;;0.52;;
48578;SDS011;34357;51.948;6.132;2023-07-20T08:24:41;1.90;;;0.57;;
48578;SDS011;34357;51.948;6.132;2023-07-20T08:27:07;2.30;;;0.30;;
48578;SDS011;34357;51.948;6.132;2023-07-20T08:29:34;1.95;;;0.50;;
48578;SDS011;34357;51.948;6.132;2023-07-20T08:32:00;0.73;;;0.43;;
48578;SDS011;34357;51.948;6.132;2023-07-20T08:34:26;1.00;;;0.38;;
48578;SDS011;34357;51.948;6.132;2023-07-20T08:36:52;3.08;;;0.40;;
48578;SDS011;34357;51.948;6.132;2023-07-20T08:39:18;2.65;;;0.57;;
48578;SDS011;34357;51.948;6.132;2023-07-20T08:41:44;2.47;;;0.57;;
48578;SDS011;34357;51.948;6.132;2023-07-20T08:44:11;1.50;;;0.40;;
48578;SDS011;34357;51.948;6.132;2023-07-20T08:46:38;1.33;;;0.40;;
48578;SDS011;34357;51.948;6.132;2023-07-20T08:49:05;1.08;;;0.40;;
48578;SDS011;34357;51.948;6.132;2023-07-20T08:51:31;1.30;;;0.47;;
48578;SDS011;34357;51.948;6.132;2023-07-20T08:53:59;0.43;;;0.43;;
48578;SDS011;34357;51.948;6.132;2023-07-20T08:56:25;0.65;;;0.30;;
48578;SDS011;34357;51.948;6.132;2023-07-20T08:58:51;2.65;;;0.57;;
48578;SDS011;34357;51.948;6.132;2023-07-20T09:01:19;1.55;;;0.60;;
48578;SDS011;34357;51.948;6.132;2023-07-20T09:03:45;2.45;;;0.40;;
48578;SDS011;34357;51.948;6.132;2023-07-20T09:06:12;1.25;;;0.30;;
48578;SDS011;34357;51.948;6.132;2023-07-20T09:08:38;2.88;;;0.30;;
48578;SDS011;34357;51.948;6.132;2023-07-20T09:11:05;1.42;;;0.40;;
48578;SDS011;34357;51.948;6.132;2023-07-20T09:13:34;2.80;;;0.40;;
48578;SDS011;34357;51.948;6.132;2023-07-20T09:16:00;0.70;;;0.30;;
48578;SDS011;34357;51.948;6.132;2023-07-20T09:18:29;1.52;;;0.47;;
48578;SDS011;34357;51.948;6.132;2023-07-20T09:21:00;0.80;;;0.50;;
48578;SDS011;34357;51.948;6.132;2023-07-20T09:23:31;0.75;;;0.30;;
48578;SDS011;34357;51.948;6.132;2023-07-20T09:26:01;1.25;;;0.47;;
48578;SDS011;34357;51.948;6.132;2023-07-20T09:28:42;1.45;;;0.70;;
48578;SDS011;34357;51.948;6.132;2023-07-20T09:31:16;9.43;;;0.50;;
48578;SDS011;34357;51.948;6.132;2023-07-20T09:33:42;0.70;;;0.30;;
48578;SDS011;34357;51.948;6.132;2023-07-20T09:36:11;1.38;;;0.40;;
48578;SDS011;34357;51.948;6.132;2023-07-20T09:38:38;0.73;;;0.30;;
48578;SDS011;34357;51.948;6.132;2023-07-20T09:41:07;1.35;;;0.70;;
48578;SDS011;34357;51.948;6.132;2023-07-20T09:43:36;0.95;;;0.43;;
48578;SDS011;34357;51.948;6.132;2023-07-20T09:46:02;0.43;;;0.30;;
48578;SDS011;34357;51.948;6.132;2023-07-20T09:48:29;0.30;;;0.30;;
48578;SDS011;34357;51.948;6.132;2023-07-20T09:50:55;3.05;;;0.50;;
48578;SDS011;34357;51.948;6.132;2023-07-20T09:53:21;3.40;;;0.30;;
48578;SDS011;34357;51.948;6.132;2023-07-20T09:55:50;2.22;;;0.60;;
48578;SDS011;34357;51.948;6.132;2023-07-20T09:58:17;0.65;;;0.43;;
48578;SDS011;34357;51.948;6.132;2023-07-20T10:00:44;1.40;;;0.50;;
48578;SDS011;34357;51.948;6.132;2023-07-20T10:03:13;0.82;;;0.40;;
48578;SDS011;34357;51.948;6.132;2023-07-20T10:05:43;4.13;;;0.40;;
48578;SDS011;34357;51.948;6.132;2023-07-20T10:10:41;0.80;;;0.40;;
48578;SDS011;34357;51.948;6.132;2023-07-20T10:13:12;1.85;;;0.40;;
48578;SDS011;34357;51.948;6.132;2023-07-20T10:15:52;2.50;;;0.55;;
48578;SDS011;34357;51.948;6.132;2023-07-20T10:20:59;1.05;;;0.43;;
48578;SDS011;34357;51.948;6.132;2023-07-20T10:23:28;0.73;;;0.40;;
48578;SDS011;34357;51.948;6.132;2023-07-20T10:25:55;0.93;;;0.30;;
48578;SDS011;34357;51.948;6.132;2023-07-20T10:28:23;0.95;;;0.30;;
48578;SDS011;34357;51.948;6.132;2023-07-20T10:30:50;1.55;;;0.60;;
48578;SDS011;34357;51.948;6.132;2023-07-20T10:33:16;1.75;;;0.35;;
48578;SDS011;34357;51.948;6.132;2023-07-20T10:35:51;1.25;;;0.40;;
48578;SDS011;34357;51.948;6.132;2023-07-20T10:38:18;4.47;;;0.50;;
48578;SDS011;34357;51.948;6.132;2023-07-20T10:40:43;1.23;;;0.40;;
48578;SDS011;34357;51.948;6.132;2023-07-20T10:43:20;0.90;;;0.40;;
48578;SDS011;34357;51.948;6.132;2023-07-20T10:45:49;0.82;;;0.40;;
48578;SDS011;34357;51.948;6.132;2023-07-20T10:48:19;0.32;;;0.30;;
48578;SDS011;34357;51.948;6.132;2023-07-20T10:51:08;1.67;;;0.55;;
48578;SDS011;34357;51.948;6.132;2023-07-20T10:53:39;0.63;;;0.32;;
48578;SDS011;34357;51.948;6.132;2023-07-20T10:56:12;1.38;;;0.38;;
48578;SDS011;34357;51.948;6.132;2023-07-20T10:58:41;0.60;;;0.40;;
48578;SDS011;34357;51.948;6.132;2023-07-20T11:01:07;2.40;;;0.40;;
48578;SDS011;34357;51.948;6.132;2023-07-20T11:03:34;1.13;;;0.32;;
48578;SDS011;34357;51.948;6.132;2023-07-20T11:11:28;1.25;;;0.50;;
48578;SDS011;34357;51.948;6.132;2023-07-20T11:13:59;2.97;;;0.60;;
48578;SDS011;34357;51.948;6.132;2023-07-20T11:16:33;0.82;;;0.32;;
48578;SDS011;34357;51.948;6.132;2023-07-20T11:18:58;0.88;;;0.32;;
48578;SDS011;34357;51.948;6.132;2023-07-20T11:21:24;3.33;;;0.60;;
48578;SDS011;34357;51.948;6.132;2023-07-20T11:23:51;1.35;;;0.43;;
48578;SDS011;34357;51.948;6.132;2023-07-20T11:26:18;2.35;;;0.57;;
48578;SDS011;34357;51.948;6.132;2023-07-20T11:28:50;1.30;;;0.60;;
48578;SDS011;34357;51.948;6.132;2023-07-20T11:31:17;0.40;;;0.40;;
48578;SDS011;34357;51.948;6.132;2023-07-20T11:33:43;2.22;;;0.40;;
48578;SDS011;34357;51.948;6.132;2023-07-20T11:36:09;2.22;;;0.57;;
48578;SDS011;34357;51.948;6.132;2023-07-20T11:38:35;3.90;;;0.80;;
48578;SDS011;34357;51.948;6.132;2023-07-20T11:41:02;2.65;;;0.60;;
48578;SDS011;34357;51.948;6.132;2023-07-20T11:43:29;1.13;;;0.75;;
48578;SDS011;34357;51.948;6.132;2023-07-20T11:45:55;1.85;;;0.63;;
48578;SDS011;34357;51.948;6.132;2023-07-20T11:48:21;2.17;;;0.50;;
48578;SDS011;34357;51.948;6.132;2023-07-20T11:50:47;1.48;;;0.40;;
48578;SDS011;34357;51.948;6.132;2023-07-20T11:53:14;0.60;;;0.38;;
48578;SDS011;34357;51.948;6.132;2023-07-20T11:55:41;1.58;;;0.65;;
48578;SDS011;34357;51.948;6.132;2023-07-20T11:58:07;2.90;;;0.60;;
48578;SDS011;34357;51.948;6.132;2023-07-20T12:00:34;1.80;;;0.80;;
48578;SDS011;34357;51.948;6.132;2023-07-20T12:03:04;1.38;;;0.85;;
48578;SDS011;34357;51.948;6.132;2023-07-20T12:05:35;1.13;;;0.70;;
48578;SDS011;34357;51.948;6.132;2023-07-20T12:08:03;1.60;;;1.05;;
48578;SDS011;34357;51.948;6.132;2023-07-20T12:10:28;0.98;;;0.60;;
48578;SDS011;34357;51.948;6.132;2023-07-20T12:13:00;1.90;;;1.13;;
48578;SDS011;34357;51.948;6.132;2023-07-20T12:15:28;1.30;;;0.57;;
48578;SDS011;34357;51.948;6.132;2023-07-20T12:17:58;1.52;;;0.80;;
48578;SDS011;34357;51.948;6.132;2023-07-20T12:22:59;2.55;;;0.90;;
48578;SDS011;34357;51.948;6.132;2023-07-20T12:25:33;3.10;;;0.85;;
48578;SDS011;34357;51.948;6.132;2023-07-20T12:28:07;1.90;;;0.80;;
48578;SDS011;34357;51.948;6.132;2023-07-20T12:30:34;2.00;;;1.00;;
48578;SDS011;34357;51.948;6.132;2023-07-20T12:33:01;0.88;;;0.82;;
48578;SDS011;34357;51.948;6.132;2023-07-20T12:35:29;2.78;;;0.80;;
48578;SDS011;34357;51.948;6.132;2023-07-20T12:37:55;1.83;;;0.80;;
48578;SDS011;34357;51.948;6.132;2023-07-20T12:40:21;2.58;;;0.90;;
48578;SDS011;34357;51.948;6.132;2023-07-20T12:42:47;5.07;;;0.80;;
48578;SDS011;34357;51.948;6.132;2023-07-20T12:45:13;1.98;;;0.90;;
48578;SDS011;34357;51.948;6.132;2023-07-20T12:47:39;3.10;;;0.90;;
48578;SDS011;34357;51.948;6.132;2023-07-20T12:50:08;5.68;;;0.60;;
48578;SDS011;34357;51.948;6.132;2023-07-20T12:52:38;0.80;;;0.60;;
48578;SDS011;34357;51.948;6.132;2023-07-20T12:55:05;2.22;;;1.05;;
48578;SDS011;34357;51.948;6.132;2023-07-20T12:57:32;4.68;;;0.70;;
48578;SDS011;34357;51.948;6.132;2023-07-20T12:59:58;1.83;;;1.38;;
48578;SDS011;34357;51.948;6.132;2023-07-20T13:02:24;3.05;;;1.50;;
48578;SDS011;34357;51.948;6.132;2023-07-20T13:04:50;2.58;;;1.70;;
48578;SDS011;34357;51.948;6.132;2023-07-20T13:07:15;1.83;;;0.65;;
48578;SDS011;34357;51.948;6.132;2023-07-20T13:09:41;1.83;;;0.80;;
48578;SDS011;34357;51.948;6.132;2023-07-20T13:12:07;1.35;;;0.63;;
48578;SDS011;34357;51.948;6.132;2023-07-20T13:14:33;1.70;;;0.88;;
48578;SDS011;34357;51.948;6.132;2023-07-20T13:16:59;1.48;;;0.68;;
48578;SDS011;34357;51.948;6.132;2023-07-20T13:19:25;6.03;;;0.90;;
48578;SDS011;34357;51.948;6.132;2023-07-20T13:21:50;1.02;;;0.80;;
48578;SDS011;34357;51.948;6.132;2023-07-20T13:24:16;2.72;;;0.70;;
48578;SDS011;34357;51.948;6.132;2023-07-20T13:26:42;1.33;;;0.68;;
48578;SDS011;34357;51.948;6.132;2023-07-20T13:29:08;1.95;;;0.80;;
48578;SDS011;34357;51.948;6.132;2023-07-20T13:31:33;1.08;;;0.80;;
48578;SDS011;34357;51.948;6.132;2023-07-20T13:33:59;1.77;;;1.10;;
48578;SDS011;34357;51.948;6.132;2023-07-20T13:36:25;0.88;;;0.60;;
48578;SDS011;34357;51.948;6.132;2023-07-20T13:38:50;2.20;;;1.10;;
48578;SDS011;34357;51.948;6.132;2023-07-20T13:41:16;2.65;;;1.00;;
48578;SDS011;34357;51.948;6.132;2023-07-20T13:43:42;2.63;;;0.60;;
48578;SDS011;34357;51.948;6.132;2023-07-20T13:46:07;1.27;;;0.82;;
48578;SDS011;34357;51.948;6.132;2023-07-20T13:48:33;0.95;;;0.80;;
48578;SDS011;34357;51.948;6.132;2023-07-20T13:50:59;1.23;;;0.55;;
48578;SDS011;34357;51.948;6.132;2023-07-20T13:53:25;2.28;;;0.82;;
48578;SDS011;34357;51.948;6.132;2023-07-20T13:55:52;0.85;;;0.50;;
48578;SDS011;34357;51.948;6.132;2023-07-20T13:58:18;0.50;;;0.50;;
48578;SDS011;34357;51.948;6.132;2023-07-20T14:00:44;2.78;;;0.73;;
48578;SDS011;34357;51.948;6.132;2023-07-20T14:03:10;2.88;;;0.80;;
48578;SDS011;34357;51.948;6.132;2023-07-20T14:05:35;0.82;;;0.50;;
48578;SDS011;34357;51.948;6.132;2023-07-20T14:08:01;1.17;;;0.90;;
48578;SDS011;34357;51.948;6.132;2023-07-20T14:10:27;2.42;;;0.60;;
48578;SDS011;34357;51.948;6.132;2023-07-20T14:12:52;2.58;;;0.60;;
48578;SDS011;34357;51.948;6.132;2023-07-20T14:15:18;1.30;;;0.63;;
48578;SDS011;34357;51.948;6.132;2023-07-20T14:17:45;1.98;;;0.70;;
48578;SDS011;34357;51.948;6.132;2023-07-20T14:20:11;1.00;;;0.60;;
48578;SDS011;34357;51.948;6.132;2023-07-20T14:22:37;0.65;;;0.50;;
48578;SDS011;34357;51.948;6.132;2023-07-20T14:25:02;1.42;;;0.95;;
48578;SDS011;34357;51.948;6.132;2023-07-20T14:27:28;2.35;;;0.63;;
48578;SDS011;34357;51.948;6.132;2023-07-20T14:29:54;1.83;;;0.50;;
48578;SDS011;34357;51.948;6.132;2023-07-20T14:32:20;2.78;;;0.60;;
48578;SDS011;34357;51.948;6.132;2023-07-20T14:34:46;1.25;;;0.70;;
48578;SDS011;34357;51.948;6.132;2023-07-20T14:37:12;0.60;;;0.43;;
48578;SDS011;34357;51.948;6.132;2023-07-20T14:39:38;2.33;;;0.65;;
48578;SDS011;34357;51.948;6.132;2023-07-20T14:42:04;1.33;;;0.50;;
48578;SDS011;34357;51.948;6.132;2023-07-20T14:44:30;1.40;;;0.50;;
48578;SDS011;34357;51.948;6.132;2023-07-20T14:46:55;1.90;;;0.63;;
48578;SDS011;34357;51.948;6.132;2023-07-20T14:49:21;2.15;;;0.70;;
48578;SDS011;34357;51.948;6.132;2023-07-20T14:51:47;3.70;;;1.38;;
48578;SDS011;34357;51.948;6.132;2023-07-20T14:54:14;3.03;;;1.20;;
48578;SDS011;34357;51.948;6.132;2023-07-20T14:56:46;4.70;;;0.70;;
48578;SDS011;34357;51.948;6.132;2023-07-20T14:59:14;1.05;;;0.70;;
48578;SDS011;34357;51.948;6.132;2023-07-20T15:01:40;1.55;;;0.65;;
48578;SDS011;34357;51.948;6.132;2023-07-20T15:04:05;1.13;;;0.40;;
48578;SDS011;34357;51.948;6.132;2023-07-20T15:06:31;0.63;;;0.40;;
48578;SDS011;34357;51.948;6.132;2023-07-20T15:08:57;1.60;;;0.55;;
48578;SDS011;34357;51.948;6.132;2023-07-20T15:11:23;1.85;;;0.63;;